Manhattan Regional Airport
KMHK : now visible

Airfield :











YOU CAN JOIN US ON...

 
LOGIN :

Register | Disclaimer

   EN    FR    IT 

 









Legend :    VFR   Marginal VFR   IFR   Intensive IFR   Very Intensive IFR
Visi :
Ceiling :
>= 8 km
>= 3000ft
5 to 8 km
1000 to 3000 ft
1500m to 5 km
500 to 1000 ft
800 to 1500m
200 to 500 ft
< 800m
< 200 ft
Symbols :   Thunderstorms  Fog  Heavy snow  Heavy precipitations  Wind > 20 kt






- Airport Elevation : 1057 ft
- IATA code : MHK


KMHK - Manhattan Regional

CURRENT METAR :
  • 250552Z AUTO 21012G19KT 10SM CLR 31/21 A2980 RMK AO2 SLP075 T03060211 10361 20306 403890211 51008

EXPIRED METARs :
  • 250452Z AUTO 21011G20KT 10SM CLR 31/21 A2980 RMK AO2 SLP074 T03060211
  • 250352Z AUTO 21010KT 10SM CLR 31/21 A2979 RMK AO2 SLP074 T03110211
  • 250252Z 20009KT 10SM CLR 32/21 A2977 RMK AO2 SLP067 T03170211 53012
  • 250152Z 20007KT 10SM CLR 33/21 A2975 RMK AO2 SLP061 T03280211

TAF KMHK
Valid from the 25 at 06:00 until the 26 at 06:00 UTC


250534Z 2506/2606 20011KT P6SM SCT250
FM251600 20013G24KT P6SM FEW250
FM260100 19009KT P6SM FEW250
KZKC FIR / North America



MET'MAP, your aeronautical weather chart ! - Copyright ORBIFLY December 2007 - Disclaimer

ORBIFLY MET'MAP TEAM :

Programming & Development : Alexandra Zaïnal
Original concept : Baudouin d'Aumeries
Technical & hardware support : Manuel Goepfert
Assistance : Marc-Olivier Méhu




SOURCES & CREDITS :

   NOAA       Earth
Advisory